Time;durP1;ratioP1;P1;durP2;ratioP2;P2;SDS_P1;SDS_P2;PMS_P1;PMS_P2;Temp;Humidity;BMP_temperature;BMP_pressure;BME280_temperature;BME280_humidity;BME280_pressure;Samples;Min_cycle;Max_cycle;Signal;HPM_P1;HPM_P2
2024/02/27 00:01:48;;;;;;;10.27;5.18;;;4.90;99.90;;;;;;8453728;28;20097;-75
2024/02/27 00:05:50;;;;;;;10.43;5.45;;;4.90;99.90;;;;;;8454211;28;20049;-75
2024/02/27 00:09:52;;;;;;;10.93;6.00;;;4.90;99.90;;;;;;8455388;28;20059;-75
2024/02/27 00:13:54;;;;;;;9.48;5.03;;;4.80;99.90;;;;;;8452663;28;20048;-75
2024/02/27 00:17:56;;;;;;;9.43;4.75;;;4.80;99.90;;;;;;8448244;28;20136;-75
2024/02/27 00:21:58;;;;;;;10.52;4.70;;;4.80;99.90;;;;;;8455109;28;20139;-75
2024/02/27 00:25:59;;;;;;;10.13;4.97;;;4.70;99.90;;;;;;8457718;28;20051;-75
2024/02/27 00:30:03;;;;;;;10.63;5.63;;;4.70;99.90;;;;;;8460649;28;20520;-75
2024/02/27 00:34:04;;;;;;;10.15;4.60;;;4.70;99.90;;;;;;8461636;28;20044;-75
2024/02/27 00:38:07;;;;;;;10.50;5.07;;;4.70;99.90;;;;;;8462037;28;20417;-75
2024/02/27 00:42:09;;;;;;;10.68;4.68;;;4.70;99.90;;;;;;8458910;28;20097;-75
2024/02/27 00:46:12;;;;;;;8.63;4.97;;;4.70;99.90;;;;;;8459882;28;20417;-75
2024/02/27 00:50:14;;;;;;;9.10;4.50;;;4.70;99.90;;;;;;8456370;28;20047;-76
2024/02/27 00:54:16;;;;;;;10.05;5.03;;;4.70;99.90;;;;;;8458892;28;20039;-75
2024/02/27 00:58:18;;;;;;;10.88;5.53;;;4.70;99.90;;;;;;8461841;28;20054;-75
2024/02/27 01:02:20;;;;;;;11.85;5.22;;;4.60;99.90;;;;;;8460044;28;20066;-75
2024/02/27 01:06:21;;;;;;;9.85;5.07;;;4.60;99.90;;;;;;8460514;28;20043;-75
2024/02/27 01:10:23;;;;;;;10.02;5.40;;;4.60;99.90;;;;;;8460035;28;20047;-75
2024/02/27 01:14:25;;;;;;;11.48;4.88;;;4.50;99.90;;;;;;8455097;28;20048;-75
2024/02/27 01:18:27;;;;;;;9.82;5.18;;;4.50;99.90;;;;;;8454033;27;20108;-75
2024/02/27 01:22:30;;;;;;;9.90;5.40;;;4.50;99.90;;;;;;8460068;28;20079;-75
2024/02/27 01:26:32;;;;;;;10.57;5.05;;;4.40;99.90;;;;;;8460845;27;20043;-75
2024/02/27 01:30:34;;;;;;;10.10;5.28;;;4.40;99.90;;;;;;8459501;28;20048;-75
2024/02/27 01:34:36;;;;;;;11.30;5.18;;;4.40;99.90;;;;;;8460718;28;20051;-75
2024/02/27 01:38:38;;;;;;;10.60;5.13;;;4.40;99.90;;;;;;8457563;28;20100;-75
2024/02/27 01:42:44;;;;;;;9.98;4.82;;;4.40;99.90;;;;;;8459493;28;20410;-75
2024/02/27 01:46:47;;;;;;;9.55;4.93;;;4.30;99.90;;;;;;8457801;28;20101;-75
2024/02/27 01:50:49;;;;;;;12.30;5.55;;;4.30;99.90;;;;;;8453803;28;20108;-75
2024/02/27 01:54:52;;;;;;;10.30;4.80;;;4.30;99.90;;;;;;8458754;27;20495;-75
2024/02/27 01:58:55;;;;;;;10.40;5.05;;;4.30;99.90;;;;;;8459838;28;20040;-75
2024/02/27 02:02:57;;;;;;;9.82;4.65;;;4.20;99.90;;;;;;8458596;28;20133;-75
2024/02/27 02:07:00;;;;;;;9.77;4.38;;;4.20;99.90;;;;;;8457652;28;20112;-75
2024/02/27 02:11:05;;;;;;;9.43;4.28;;;4.10;99.90;;;;;;8458502;28;20098;-75
2024/02/27 02:15:07;;;;;;;12.05;4.82;;;4.10;99.90;;;;;;8455366;28;20564;-75
2024/02/27 02:19:09;;;;;;;10.45;4.80;;;4.10;99.90;;;;;;8451274;28;20047;-75
2024/02/27 02:23:11;;;;;;;11.52;5.18;;;4.10;99.90;;;;;;8459441;27;20040;-75
2024/02/27 02:27:16;;;;;;;11.38;5.07;;;4.00;99.90;;;;;;8459617;28;20058;-76
2024/02/27 02:31:18;;;;;;;9.52;5.00;;;4.00;99.90;;;;;;8459170;27;20051;-75
2024/02/27 02:35:20;;;;;;;10.38;4.90;;;4.00;99.90;;;;;;8460069;28;20073;-75
2024/02/27 02:39:22;;;;;;;10.52;4.47;;;3.90;99.90;;;;;;8455087;28;20047;-75
2024/02/27 02:43:24;;;;;;;11.55;5.30;;;3.90;99.90;;;;;;8457730;28;20047;-75
2024/02/27 02:47:26;;;;;;;10.07;4.20;;;3.90;99.90;;;;;;8459630;28;20534;-75
2024/02/27 02:51:31;;;;;;;10.65;4.45;;;3.80;99.90;;;;;;8454860;28;20048;-75
2024/02/27 02:55:33;;;;;;;9.05;4.32;;;3.80;99.90;;;;;;8456946;28;20088;-75
2024/02/27 02:59:34;;;;;;;9.25;4.70;;;3.80;99.90;;;;;;8457860;27;20050;-75
2024/02/27 03:03:36;;;;;;;11.35;4.55;;;3.70;99.90;;;;;;8457431;28;20043;-75
2024/02/27 03:07:40;;;;;;;10.05;5.00;;;3.70;99.90;;;;;;8458267;28;20105;-75
2024/02/27 03:11:42;;;;;;;10.20;4.72;;;3.60;99.90;;;;;;8456752;28;20064;-75
2024/02/27 03:15:44;;;;;;;12.18;4.82;;;3.60;99.90;;;;;;8446540;28;20036;-75
2024/02/27 03:19:46;;;;;;;9.52;4.53;;;3.60;99.90;;;;;;8451776;28;20048;-75
2024/02/27 03:23:47;;;;;;;12.90;4.65;;;3.60;99.90;;;;;;8456264;28;20108;-75
2024/02/27 03:27:49;;;;;;;8.90;4.55;;;3.50;99.90;;;;;;8457289;28;20040;-75
2024/02/27 03:31:51;;;;;;;10.23;4.82;;;3.50;99.90;;;;;;8453962;28;20487;-75
2024/02/27 03:35:53;;;;;;;10.23;4.57;;;3.50;99.90;;;;;;8454195;28;20379;-75
2024/02/27 03:39:54;;;;;;;9.13;4.03;;;3.40;99.90;;;;;;8457633;28;20043;-75
2024/02/27 03:43:56;;;;;;;9.35;4.15;;;3.40;99.90;;;;;;8456047;28;20048;-75
2024/02/27 03:47:58;;;;;;;8.57;4.38;;;3.40;99.90;;;;;;8455654;28;20108;-75
2024/02/27 03:52:00;;;;;;;10.07;4.53;;;3.40;99.90;;;;;;8455425;28;20050;-75
2024/02/27 03:56:04;;;;;;;10.95;5.10;;;3.30;99.90;;;;;;8456404;28;20048;-75
2024/02/27 04:00:06;;;;;;;12.40;4.88;;;3.30;99.90;;;;;;8459748;28;20468;-75
2024/02/27 04:04:08;;;;;;;9.57;4.65;;;3.30;99.90;;;;;;8465107;28;20047;-75
2024/02/27 04:08:10;;;;;;;10.40;5.38;;;3.30;99.90;;;;;;8465949;28;20055;-75
2024/02/27 04:12:12;;;;;;;11.40;4.63;;;3.20;99.90;;;;;;8466855;28;20387;-75
2024/02/27 04:16:13;;;;;;;9.10;4.40;;;3.20;99.90;;;;;;8456100;28;20575;-75
2024/02/27 04:20:15;;;;;;;11.10;4.70;;;3.20;99.90;;;;;;8467288;28;20044;-75
2024/02/27 04:24:17;;;;;;;11.75;5.70;;;3.20;99.90;;;;;;8462221;27;20079;-75
2024/02/27 04:28:19;;;;;;;12.77;4.95;;;3.20;99.90;;;;;;8467866;27;20062;-75
2024/02/27 04:32:21;;;;;;;10.48;4.53;;;3.20;99.90;;;;;;8466966;28;20055;-76
2024/02/27 04:36:23;;;;;;;10.85;4.28;;;3.10;99.90;;;;;;8463651;28;20044;-75
2024/02/27 04:40:25;;;;;;;11.13;5.03;;;3.10;99.90;;;;;;8469486;27;20054;-75
2024/02/27 04:44:27;;;;;;;9.27;4.53;;;3.10;99.90;;;;;;8465150;27;20060;-76
2024/02/27 04:48:29;;;;;;;10.50;4.60;;;3.10;99.90;;;;;;8471384;28;20383;-75
2024/02/27 04:52:31;;;;;;;10.43;4.53;;;3.10;99.90;;;;;;8471764;27;20047;-75
2024/02/27 05:02:22;;;;;;;10.35;4.40;;;3.00;99.90;;;;;;8467775;27;20026;-75
2024/02/27 05:06:24;;;;;;;10.05;4.43;;;3.00;99.90;;;;;;8462593;27;20074;-75
2024/02/27 05:10:26;;;;;;;11.38;4.72;;;3.00;99.90;;;;;;8466074;28;20043;-75
2024/02/27 05:14:27;;;;;;;11.25;4.80;;;3.00;99.90;;;;;;8458332;28;20044;-75
2024/02/27 05:18:30;;;;;;;11.18;4.53;;;3.00;99.90;;;;;;8457642;27;20822;-75
2024/02/27 05:22:32;;;;;;;9.80;4.93;;;3.00;99.90;;;;;;8462009;28;20036;-75
2024/02/27 05:26:33;;;;;;;11.30;4.80;;;2.90;99.90;;;;;;8459266;28;20047;-76
2024/02/27 05:30:35;;;;;;;11.95;4.75;;;2.90;99.90;;;;;;8460062;27;20047;-75
2024/02/27 05:34:37;;;;;;;11.30;4.72;;;2.90;99.90;;;;;;8459950;27;20055;-75
2024/02/27 05:38:39;;;;;;;9.80;5.07;;;2.90;99.90;;;;;;8456194;28;20078;-75
2024/02/27 05:42:41;;;;;;;9.98;4.53;;;2.80;99.90;;;;;;8461757;27;20532;-75
2024/02/27 05:46:43;;;;;;;9.43;4.28;;;2.80;99.90;;;;;;8465836;27;20059;-75
2024/02/27 05:50:45;;;;;;;10.57;5.35;;;2.80;99.90;;;;;;8457087;27;20078;-75
2024/02/27 05:54:47;;;;;;;11.88;4.95;;;2.80;99.90;;;;;;8459675;27;20047;-75
2024/02/27 05:58:49;;;;;;;11.57;5.03;;;2.70;99.90;;;;;;8458641;28;20051;-75
2024/02/27 06:02:51;;;;;;;9.77;4.75;;;2.70;99.90;;;;;;8456912;28;20479;-75
2024/02/27 06:06:52;;;;;;;12.63;5.45;;;2.70;99.90;;;;;;8457656;28;20044;-75
2024/02/27 06:10:54;;;;;;;11.73;5.05;;;2.60;99.90;;;;;;8456464;27;20484;-75
2024/02/27 06:14:56;;;;;;;13.38;4.88;;;2.60;99.90;;;;;;8454110;27;20101;-75
2024/02/27 06:18:58;;;;;;;10.45;4.85;;;2.60;99.90;;;;;;8460864;27;20039;-75
2024/02/27 06:23:00;;;;;;;11.30;4.88;;;2.60;99.90;;;;;;8457995;27;20040;-75
2024/02/27 06:27:03;;;;;;;10.35;4.50;;;2.60;99.90;;;;;;8456337;28;20482;-75
2024/02/27 06:31:06;;;;;;;12.15;5.20;;;2.50;99.90;;;;;;8456438;28;20096;-75
2024/02/27 06:35:11;;;;;;;11.05;4.72;;;2.50;99.90;;;;;;8459649;28;20043;-75
2024/02/27 06:39:13;;;;;;;11.90;4.85;;;2.50;99.90;;;;;;8457018;28;20051;-75
2024/02/27 06:43:15;;;;;;;10.25;4.75;;;2.50;99.90;;;;;;8459298;28;20089;-75
2024/02/27 06:47:17;;;;;;;9.93;4.78;;;2.50;99.90;;;;;;8458428;28;20051;-75
2024/02/27 06:51:20;;;;;;;11.95;5.47;;;2.50;99.90;;;;;;8455952;28;20087;-75
2024/02/27 06:55:22;;;;;;;11.63;4.90;;;2.50;99.90;;;;;;8460243;28;20396;-75
2024/02/27 06:59:23;;;;;;;11.90;5.30;;;2.50;99.90;;;;;;8459086;28;20051;-75
2024/02/27 07:03:25;;;;;;;11.60;5.50;;;2.60;99.90;;;;;;8459685;28;20051;-75
2024/02/27 07:07:27;;;;;;;11.32;4.72;;;2.60;99.90;;;;;;8459061;27;20090;-75
2024/02/27 07:11:31;;;;;;;12.50;5.40;;;2.70;99.90;;;;;;8459167;28;20047;-75
2024/02/27 07:15:33;;;;;;;12.38;5.43;;;2.70;99.90;;;;;;8451673;28;20513;-75
2024/02/27 07:19:37;;;;;;;14.05;5.13;;;2.80;99.90;;;;;;8453342;28;20048;-75
2024/02/27 07:23:39;;;;;;;15.30;5.32;;;2.90;99.90;;;;;;8459262;28;20047;-75
2024/02/27 07:27:41;;;;;;;13.50;5.22;;;3.00;99.90;;;;;;8460031;28;20414;-75
2024/02/27 07:31:44;;;;;;;13.02;5.18;;;3.10;99.90;;;;;;8459046;28;20056;-75
2024/02/27 07:35:46;;;;;;;11.82;5.68;;;3.20;99.90;;;;;;8455829;28;20055;-75
2024/02/27 07:39:48;;;;;;;12.10;5.18;;;3.30;99.90;;;;;;8457713;28;20100;-75
2024/02/27 07:43:49;;;;;;;13.82;5.35;;;3.50;99.90;;;;;;8457837;28;20131;-75
2024/02/27 07:47:51;;;;;;;12.00;4.70;;;3.60;99.90;;;;;;8458509;28;20047;-75
2024/02/27 07:51:54;;;;;;;13.38;5.63;;;3.70;99.90;;;;;;8457833;28;20288;-75
2024/02/27 07:55:56;;;;;;;11.88;4.97;;;3.90;99.90;;;;;;8456208;28;20055;-75
2024/02/27 07:59:58;;;;;;;12.88;5.15;;;4.00;99.90;;;;;;8451085;28;20509;-75
2024/02/27 08:04:04;;;;;;;12.18;5.07;;;4.20;99.90;;;;;;8454654;28;20090;-75
2024/02/27 08:08:06;;;;;;;14.88;5.53;;;4.30;99.90;;;;;;8453694;28;20048;-75
2024/02/27 08:12:10;;;;;;;11.88;5.35;;;4.50;99.90;;;;;;8459264;28;20063;-75
2024/02/27 08:16:12;;;;;;;11.70;5.60;;;4.60;99.90;;;;;;8448686;28;20044;-75
2024/02/27 08:20:14;;;;;;;11.82;4.95;;;4.60;99.90;;;;;;8458500;28;20069;-75
2024/02/27 08:24:16;;;;;;;10.73;5.38;;;4.70;99.90;;;;;;8454279;28;20047;-75
2024/02/27 08:28:17;;;;;;;12.73;6.03;;;4.80;99.90;;;;;;8457160;28;20052;-75
2024/02/27 08:32:20;;;;;;;12.38;5.97;;;4.90;99.90;;;;;;8458559;28;20054;-75
2024/02/27 08:36:24;;;;;;;12.77;6.10;;;5.10;99.90;;;;;;8455874;28;20056;-75
2024/02/27 08:40:27;;;;;;;11.93;5.07;;;5.20;99.90;;;;;;8450434;28;20055;-75
2024/02/27 08:44:28;;;;;;;10.25;4.78;;;5.30;99.90;;;;;;8457275;28;20055;-75
2024/02/27 08:48:30;;;;;;;11.48;4.82;;;5.40;99.90;;;;;;8459945;28;20047;-75
2024/02/27 08:52:32;;;;;;;11.25;5.93;;;5.50;99.90;;;;;;8464700;28;20052;-75
2024/02/27 08:56:36;;;;;;;12.93;5.63;;;5.60;99.90;;;;;;8463374;27;20040;-75
2024/02/27 09:00:39;;;;;;;11.02;5.80;;;5.70;99.90;;;;;;8463473;28;20479;-75
2024/02/27 09:04:41;;;;;;;11.23;5.70;;;5.80;99.90;;;;;;8462291;28;20079;-75
2024/02/27 09:08:43;;;;;;;10.77;5.80;;;5.90;99.90;;;;;;8454380;28;20047;-75
2024/02/27 09:12:45;;;;;;;10.25;5.72;;;6.00;99.90;;;;;;8465014;28;20055;-75
2024/02/27 09:16:47;;;;;;;13.75;6.50;;;6.20;99.90;;;;;;8447945;28;20040;-76
2024/02/27 09:20:48;;;;;;;11.23;6.07;;;6.30;99.90;;;;;;8458566;28;20043;-75
2024/02/27 09:24:50;;;;;;;10.98;6.10;;;6.40;99.90;;;;;;8463508;28;20079;-76
2024/02/27 09:28:53;;;;;;;12.57;6.28;;;6.40;99.90;;;;;;8461202;27;20462;-75
2024/02/27 09:32:55;;;;;;;12.70;6.78;;;6.50;99.90;;;;;;8461104;28;20047;-75
2024/02/27 09:36:57;;;;;;;12.80;6.28;;;6.70;99.90;;;;;;8458962;28;20471;-76
2024/02/27 09:41:00;;;;;;;11.10;6.70;;;6.80;99.90;;;;;;8457338;28;20036;-75
2024/02/27 09:45:06;;;;;;;11.43;6.55;;;6.90;99.90;;;;;;8469449;27;20043;-75
2024/02/27 09:49:11;;;;;;;13.35;7.03;;;7.10;99.90;;;;;;8468499;27;20074;-76
2024/02/27 09:53:29;;;;;;;11.45;6.65;;;7.30;99.90;;;;;;8456978;28;20096;-75
2024/02/27 09:57:33;;;;;;;12.80;6.72;;;7.60;99.90;;;;;;8462717;27;20045;-76
2024/02/27 10:01:36;;;;;;;10.50;6.10;;;8.00;99.90;;;;;;8456522;27;20423;-75
2024/02/27 10:05:41;;;;;;;12.60;7.00;;;8.40;99.90;;;;;;8460506;28;20051;-75
2024/02/27 10:09:46;;;;;;;13.43;6.85;;;8.80;99.90;;;;;;8460915;28;20097;-76
2024/02/27 10:13:48;;;;;;;11.52;6.70;;;9.20;99.90;;;;;;8456435;28;20074;-75
2024/02/27 10:17:52;;;;;;;10.55;7.10;;;9.50;99.90;;;;;;8458932;28;20044;-75
2024/02/27 10:21:55;;;;;;;9.90;6.55;;;9.70;99.90;;;;;;8458837;28;20415;-76
2024/02/27 10:26:07;;;;;;;10.30;6.65;;;9.80;99.90;;;;;;8459151;28;20048;-75
2024/02/27 10:30:10;;;;;;;11.00;6.68;;;9.90;99.90;;;;;;8464243;27;20072;-75
2024/02/27 10:34:13;;;;;;;10.48;6.40;;;10.10;99.90;;;;;;8457615;28;20066;-76
2024/02/27 10:38:19;;;;;;;8.55;6.13;;;10.60;99.90;;;;;;8459475;27;20410;-76
2024/02/27 10:42:20;;;;;;;9.68;6.60;;;11.10;99.90;;;;;;8458194;28;20441;-75
2024/02/27 10:46:24;;;;;;;11.60;6.20;;;11.70;99.90;;;;;;8457810;27;20044;-75
2024/02/27 10:50:27;;;;;;;8.55;6.20;;;12.30;99.90;;;;;;8466544;27;20039;-75
2024/02/27 10:54:30;;;;;;;8.73;5.93;;;12.80;99.90;;;;;;8455516;28;20082;-75
2024/02/27 10:58:35;;;;;;;8.00;5.20;;;13.30;99.90;;;;;;8461298;28;20054;-75
2024/02/27 11:02:42;;;;;;;7.47;5.20;;;13.90;99.90;;;;;;8456968;28;20126;-75
2024/02/27 11:06:48;;;;;;;8.63;5.88;;;14.30;99.90;;;;;;8453783;28;20129;-76
2024/02/27 11:10:50;;;;;;;7.95;5.13;;;14.70;99.90;;;;;;8456050;28;20380;-76
2024/02/27 11:15:01;;;;;;;8.35;5.63;;;15.10;99.90;;;;;;8453732;28;20049;-75
2024/02/27 11:19:10;;;;;;;7.30;5.20;;;15.50;99.90;;;;;;8452944;28;20491;-75
2024/02/27 11:23:13;;;;;;;7.05;5.00;;;15.80;99.90;;;;;;8460617;28;20138;-76
2024/02/27 11:27:26;;;;;;;7.60;5.53;;;16.00;99.90;;;;;;8456832;28;20084;-76
2024/02/27 11:31:29;;;;;;;7.15;5.22;;;16.30;99.90;;;;;;8451818;28;20048;-76
2024/02/27 11:35:32;;;;;;;6.93;4.85;;;16.60;99.90;;;;;;8459862;28;20054;-76
2024/02/27 11:39:34;;;;;;;7.25;5.03;;;16.90;99.90;;;;;;8455423;28;20040;-76
2024/02/27 11:43:35;;;;;;;9.10;5.20;;;17.20;99.90;;;;;;8459247;28;20432;-76
2024/02/27 11:47:44;;;;;;;6.97;5.18;;;17.60;99.90;;;;;;8454620;28;20414;-74
2024/02/27 11:51:46;;;;;;;7.00;5.05;;;17.70;99.90;;;;;;8457015;28;20409;-76
2024/02/27 11:55:53;;;;;;;6.63;5.00;;;17.90;99.90;;;;;;8456882;28;20044;-76
2024/02/27 12:00:14;;;;;;;7.15;5.10;;;18.10;99.90;;;;;;8455700;28;20104;-76
2024/02/27 12:04:17;;;;;;;6.97;4.88;;;18.40;99.90;;;;;;8458143;28;20131;-76
2024/02/27 12:08:21;;;;;;;6.10;4.60;;;18.60;99.90;;;;;;8458328;28;20048;-76
2024/02/27 12:12:23;;;;;;;6.80;4.93;;;19.00;99.90;;;;;;8455412;28;20044;-76
2024/02/27 12:16:26;;;;;;;7.78;5.60;;;19.20;99.90;;;;;;8443134;28;20043;-76
2024/02/27 12:20:28;;;;;;;5.93;4.38;;;19.20;99.90;;;;;;8441279;28;20560;-76
2024/02/27 12:24:30;;;;;;;6.35;4.60;;;19.40;99.90;;;;;;8440312;28;20036;-76
2024/02/27 12:28:32;;;;;;;6.75;4.00;;;19.70;99.90;;;;;;8432474;28;20068;-76
2024/02/27 12:37:56;;;;;;;5.45;4.03;;;19.60;99.90;;;;;;8428897;28;20120;-77
2024/02/27 12:42:00;;;;;;;5.82;4.38;;;19.40;99.90;;;;;;8433986;28;20109;-77
2024/02/27 12:46:04;;;;;;;5.40;3.90;;;19.30;99.90;;;;;;8438690;27;20048;-77
2024/02/27 12:50:10;;;;;;;6.90;4.53;;;19.30;99.90;;;;;;8436983;27;20109;-77
2024/02/27 12:54:13;;;;;;;6.40;4.90;;;19.10;99.90;;;;;;8453354;27;20437;-77
2024/02/27 12:58:23;;;;;;;5.85;4.22;;;19.00;99.90;;;;;;8429137;28;20123;-76
2024/02/27 13:02:25;;;;;;;6.45;4.35;;;19.00;99.90;;;;;;8435025;28;20051;-76
2024/02/27 13:06:27;;;;;;;5.97;4.38;;;18.80;99.90;;;;;;8440834;28;20074;-77
2024/02/27 13:10:30;;;;;;;6.20;4.47;;;19.00;99.90;;;;;;8430322;28;20040;-77
2024/02/27 13:14:32;;;;;;;6.43;4.32;;;18.80;99.90;;;;;;8424302;28;20080;-76
2024/02/27 13:18:35;;;;;;;8.95;4.30;;;18.20;99.90;;;;;;8439728;28;20040;-77
2024/02/27 13:22:38;;;;;;;6.72;4.40;;;17.50;99.90;;;;;;8445380;28;20354;-76
2024/02/27 13:26:40;;;;;;;7.88;5.38;;;16.80;99.90;;;;;;8427519;28;20048;-76
2024/02/27 13:30:42;;;;;;;8.13;5.38;;;16.20;99.90;;;;;;8426926;28;20075;-76
2024/02/27 13:34:44;;;;;;;7.63;4.65;;;15.40;99.90;;;;;;8440796;28;20044;-76
2024/02/27 13:38:49;;;;;;;6.55;4.43;;;15.00;99.90;;;;;;8438286;28;20048;-76
2024/02/27 13:42:51;;;;;;;7.50;4.95;;;14.80;99.90;;;;;;8436972;28;20036;-76
2024/02/27 13:46:53;;;;;;;6.47;4.50;;;14.50;99.90;;;;;;8436970;28;20076;-76
2024/02/27 13:50:57;;;;;;;7.85;5.40;;;14.50;99.90;;;;;;8437494;28;20491;-76
2024/02/27 13:55:03;;;;;;;8.93;5.18;;;14.40;99.90;;;;;;8445934;28;20081;-76
2024/02/27 13:59:05;;;;;;;8.52;5.55;;;14.30;99.90;;;;;;8429134;28;20040;-76
2024/02/27 14:03:08;;;;;;;7.72;5.10;;;14.30;99.90;;;;;;8431069;28;20055;-76
2024/02/27 14:07:11;;;;;;;7.68;5.15;;;14.40;99.90;;;;;;8444215;27;20074;-76
2024/02/27 14:11:13;;;;;;;7.45;4.70;;;14.50;99.90;;;;;;8440487;28;20056;-76
2024/02/27 14:15:14;;;;;;;7.63;4.47;;;14.60;99.90;;;;;;8431864;28;20192;-76
2024/02/27 14:19:16;;;;;;;6.75;4.43;;;14.70;99.90;;;;;;8435727;28;20066;-76
2024/02/27 14:23:18;;;;;;;6.60;4.43;;;14.70;99.90;;;;;;8441340;28;20372;-76
2024/02/27 14:27:20;;;;;;;7.65;4.47;;;14.50;99.90;;;;;;8431966;27;20403;-76
2024/02/27 14:31:23;;;;;;;6.68;4.38;;;14.40;99.90;;;;;;8432530;28;20120;-75
2024/02/27 14:35:25;;;;;;;6.68;4.20;;;14.60;99.90;;;;;;8428267;28;20054;-76
2024/02/27 14:39:26;;;;;;;8.23;4.32;;;15.00;99.90;;;;;;8430741;28;20040;-76
2024/02/27 14:43:28;;;;;;;7.57;4.90;;;15.90;99.90;;;;;;8429904;28;20048;-76
2024/02/27 14:47:30;;;;;;;7.28;4.68;;;16.80;99.90;;;;;;8438572;28;20052;-76
2024/02/27 14:51:32;;;;;;;6.30;4.10;;;17.50;99.90;;;;;;8434363;27;20044;-76
2024/02/27 14:55:34;;;;;;;5.97;4.00;;;17.60;99.90;;;;;;8431343;28;20086;-76
2024/02/27 14:59:37;;;;;;;6.18;4.32;;;17.60;99.90;;;;;;8429895;28;20116;-77
2024/02/27 15:03:39;;;;;;;7.03;4.78;;;17.40;99.90;;;;;;8443086;28;20044;-76
2024/02/27 15:07:41;;;;;;;7.90;5.25;;;17.40;99.90;;;;;;8428638;28;20058;-76
2024/02/27 15:11:42;;;;;;;8.35;5.65;;;17.50;99.90;;;;;;8427576;28;20089;-76
2024/02/27 15:15:44;;;;;;;7.75;5.20;;;17.50;99.90;;;;;;8458204;27;20482;-76
2024/02/27 15:19:46;;;;;;;7.55;5.20;;;17.40;99.90;;;;;;8434526;28;20047;-76
2024/02/27 15:23:50;;;;;;;8.30;5.13;;;17.30;99.90;;;;;;8428721;27;20048;-76
2024/02/27 15:27:52;;;;;;;8.75;5.63;;;17.50;99.90;;;;;;8425800;28;20436;-76
2024/02/27 15:31:54;;;;;;;7.72;5.10;;;17.70;99.90;;;;;;8431157;28;20510;-76
2024/02/27 15:35:56;;;;;;;6.40;4.70;;;17.90;99.90;;;;;;8436393;28;20105;-76
2024/02/27 15:39:58;;;;;;;6.82;4.68;;;18.10;99.90;;;;;;8425345;28;20036;-76
2024/02/27 15:43:59;;;;;;;9.23;5.00;;;17.90;99.90;;;;;;8422465;28;20047;-76
2024/02/27 15:48:13;;;;;;;9.63;5.07;;;17.50;99.90;;;;;;8427977;28;20134;-76
2024/02/27 15:52:15;;;;;;;7.55;5.03;;;17.00;99.90;;;;;;8434608;28;20151;-76
2024/02/27 15:56:17;;;;;;;7.55;5.10;;;16.80;99.90;;;;;;8423522;28;20047;-76
2024/02/27 16:00:19;;;;;;;7.63;5.05;;;16.50;99.90;;;;;;8426722;28;20047;-76
2024/02/27 16:04:48;;;;;;;7.07;5.18;;;16.10;99.90;;;;;;8436928;28;20064;-76
2024/02/27 16:08:50;;;;;;;7.95;5.43;;;15.70;99.90;;;;;;8437710;28;20052;-76
2024/02/27 16:12:52;;;;;;;6.97;4.60;;;15.40;99.90;;;;;;8428963;28;20128;-76
2024/02/27 16:16:54;;;;;;;7.53;5.15;;;15.20;99.90;;;;;;8429784;28;20051;-76
2024/02/27 16:20:56;;;;;;;7.25;4.68;;;14.90;99.90;;;;;;8430450;28;20425;-76
2024/02/27 16:24:58;;;;;;;8.40;4.90;;;14.70;99.90;;;;;;8427089;28;20113;-76
2024/02/27 16:28:59;;;;;;;8.57;4.68;;;14.10;99.90;;;;;;8433747;28;20048;-76
2024/02/27 16:33:02;;;;;;;8.55;5.60;;;13.60;99.90;;;;;;8429140;27;20051;-76
2024/02/27 16:37:06;;;;;;;7.35;4.55;;;13.10;99.90;;;;;;8429308;28;20550;-76
2024/02/27 16:41:08;;;;;;;8.30;5.50;;;12.70;99.90;;;;;;8429247;28;20449;-76
2024/02/27 16:45:09;;;;;;;8.43;5.30;;;12.40;99.90;;;;;;8424481;28;20052;-76
2024/02/27 16:49:11;;;;;;;7.40;4.57;;;12.10;99.90;;;;;;8439562;28;20048;-76
2024/02/27 16:53:13;;;;;;;9.48;5.97;;;11.90;99.90;;;;;;8434179;28;20101;-76
2024/02/27 16:57:15;;;;;;;8.82;5.35;;;11.70;99.90;;;;;;8420230;28;20090;-76
2024/02/27 17:01:17;;;;;;;7.63;5.15;;;11.60;99.90;;;;;;8431633;28;20067;-76
2024/02/27 17:05:19;;;;;;;8.80;5.05;;;11.40;99.90;;;;;;8426966;28;20032;-76
2024/02/27 17:09:21;;;;;;;8.77;5.43;;;11.20;99.90;;;;;;8431714;28;20040;-76
2024/02/27 17:13:23;;;;;;;7.75;5.13;;;11.00;99.90;;;;;;8433481;28;20051;-76
2024/02/27 17:17:25;;;;;;;8.57;4.90;;;10.90;99.90;;;;;;8428631;27;20059;-76
2024/02/27 17:21:27;;;;;;;8.65;5.03;;;10.70;99.90;;;;;;8428697;28;20050;-76
2024/02/27 17:26:08;;;;;;;6.93;4.45;;;10.60;99.90;;;;;;8439637;28;20036;-76
2024/02/27 17:30:10;;;;;;;7.43;4.60;;;10.40;99.90;;;;;;8426462;27;20051;-76
2024/02/27 17:34:12;;;;;;;7.93;4.75;;;10.30;99.90;;;;;;8425989;27;20143;-76
2024/02/27 17:38:14;;;;;;;7.43;4.20;;;10.10;99.90;;;;;;8431373;28;20126;-76
2024/02/27 17:42:16;;;;;;;7.60;4.20;;;10.00;99.90;;;;;;8434305;28;20046;-76
2024/02/27 17:46:18;;;;;;;8.55;4.32;;;9.80;99.90;;;;;;8433284;28;20062;-76
2024/02/27 17:50:20;;;;;;;7.65;4.28;;;9.60;99.90;;;;;;8443948;28;20047;-77
2024/02/27 17:54:21;;;;;;;7.57;4.38;;;9.40;99.90;;;;;;8435827;28;20549;-76
2024/02/27 17:58:23;;;;;;;8.60;4.82;;;9.30;99.90;;;;;;8438261;28;20129;-76
2024/02/27 18:02:25;;;;;;;6.53;4.07;;;9.20;99.90;;;;;;8435311;28;20394;-76
2024/02/27 18:06:27;;;;;;;8.30;4.28;;;9.00;99.90;;;;;;8444067;28;20040;-76
2024/02/27 18:10:29;;;;;;;8.27;4.10;;;8.90;99.90;;;;;;8431709;28;20135;-76
2024/02/27 18:14:31;;;;;;;7.45;4.30;;;8.70;99.90;;;;;;8462133;27;20047;-76
2024/02/27 18:18:33;;;;;;;7.68;4.13;;;8.50;99.90;;;;;;8427209;28;20089;-76
2024/02/27 18:22:35;;;;;;;6.78;3.97;;;8.40;99.90;;;;;;8442447;28;20456;-76
2024/02/27 18:26:37;;;;;;;6.20;3.63;;;8.40;99.90;;;;;;8429770;28;20039;-76
2024/02/27 18:30:40;;;;;;;6.63;3.50;;;8.30;99.90;;;;;;8443348;28;20074;-76
2024/02/27 18:34:44;;;;;;;6.97;3.70;;;8.10;99.90;;;;;;8441773;28;20056;-75
2024/02/27 18:38:46;;;;;;;8.15;4.63;;;8.10;99.90;;;;;;8442050;28;20048;-76
2024/02/27 18:43:43;;;;;;;7.20;4.25;;;8.00;99.90;;;;;;8443041;27;20062;-76
2024/02/27 18:47:45;;;;;;;8.00;5.00;;;7.90;99.90;;;;;;8439326;28;20052;-75
2024/02/27 18:51:47;;;;;;;10.57;5.30;;;7.90;99.90;;;;;;8440593;28;20073;-76
2024/02/27 18:55:49;;;;;;;7.82;4.47;;;7.90;99.90;;;;;;8470597;27;20075;-76
2024/02/27 18:59:51;;;;;;;10.10;4.47;;;7.90;99.90;;;;;;8441896;28;20043;-76
2024/02/27 19:03:53;;;;;;;10.15;4.93;;;7.80;99.90;;;;;;8441065;28;20109;-76
2024/02/27 19:07:55;;;;;;;7.63;4.53;;;7.80;99.90;;;;;;8435519;28;20067;-76
2024/02/27 19:11:56;;;;;;;8.23;4.43;;;7.70;99.90;;;;;;8446414;28;20043;-76
2024/02/27 19:15:59;;;;;;;6.45;4.13;;;7.70;99.90;;;;;;8430810;28;20548;-76
2024/02/27 19:20:01;;;;;;;8.93;4.10;;;7.60;99.90;;;;;;8431229;27;20040;-76
2024/02/27 19:24:03;;;;;;;7.70;4.57;;;7.50;99.90;;;;;;8433593;28;20101;-76
2024/02/27 19:28:05;;;;;;;6.15;3.50;;;7.30;99.90;;;;;;8428819;28;20402;-76
2024/02/27 19:32:08;;;;;;;8.60;3.90;;;7.20;99.90;;;;;;8427839;27;20044;-76
2024/02/27 19:36:10;;;;;;;9.20;4.22;;;7.10;99.90;;;;;;8426683;27;21221;-76
2024/02/27 19:40:14;;;;;;;8.55;4.47;;;7.00;99.90;;;;;;8440165;27;20052;-76
2024/02/27 19:44:16;;;;;;;9.75;4.53;;;6.90;99.90;;;;;;8427721;28;20052;-75
2024/02/27 19:48:19;;;;;;;7.53;4.18;;;6.90;99.90;;;;;;8427385;27;20043;-75
2024/02/27 19:52:21;;;;;;;8.52;4.55;;;6.90;99.90;;;;;;8428702;28;20105;-76
2024/02/27 19:56:23;;;;;;;7.90;4.55;;;6.90;99.90;;;;;;8429052;28;20052;-76
2024/02/27 20:00:24;;;;;;;7.10;4.25;;;6.90;99.90;;;;;;8428500;28;20051;-76
2024/02/27 20:04:26;;;;;;;7.85;4.72;;;6.80;99.90;;;;;;8436382;28;20047;-76
2024/02/27 20:08:28;;;;;;;10.18;5.38;;;6.70;99.90;;;;;;8432721;28;20384;-75
2024/02/27 20:12:30;;;;;;;8.32;4.80;;;6.70;99.90;;;;;;8438968;28;20051;-76
2024/02/27 20:16:32;;;;;;;9.13;5.35;;;6.70;99.90;;;;;;8430065;28;20048;-76
2024/02/27 20:20:34;;;;;;;11.90;6.60;;;6.60;99.90;;;;;;8436843;28;20055;-76
2024/02/27 20:24:37;;;;;;;13.68;7.55;;;6.50;99.90;;;;;;8426992;28;20480;-76
2024/02/27 20:28:44;;;;;;;14.15;8.15;;;6.50;99.90;;;;;;8427130;28;20051;-76
2024/02/27 20:32:46;;;;;;;14.93;8.40;;;6.60;99.90;;;;;;8436667;28;20059;-76
2024/02/27 20:36:48;;;;;;;14.55;7.95;;;6.70;99.90;;;;;;8427531;28;20446;-76
2024/02/27 20:40:50;;;;;;;10.25;6.20;;;6.70;99.90;;;;;;8434896;28;20123;-76
2024/02/27 20:44:53;;;;;;;11.15;6.13;;;6.70;99.90;;;;;;8442746;28;20052;-76
2024/02/27 20:48:55;;;;;;;11.70;6.18;;;6.60;99.90;;;;;;8445906;28;20052;-76
2024/02/27 20:52:58;;;;;;;10.80;6.50;;;6.50;99.90;;;;;;8435591;28;20048;-76
2024/02/27 20:57:00;;;;;;;12.77;6.60;;;6.40;99.90;;;;;;8441079;27;20043;-75
2024/02/27 21:01:01;;;;;;;11.27;6.28;;;6.30;99.90;;;;;;8439475;28;20044;-76
2024/02/27 21:05:04;;;;;;;12.68;7.07;;;6.20;99.90;;;;;;8433844;27;20048;-76
2024/02/27 21:09:06;;;;;;;15.30;7.55;;;6.10;99.90;;;;;;8437202;28;20044;-76
2024/02/27 21:13:08;;;;;;;12.23;6.88;;;6.00;99.90;;;;;;8444643;27;20055;-76
2024/02/27 21:17:10;;;;;;;14.45;7.43;;;5.80;99.90;;;;;;8436329;28;20051;-76